Time;durP1;ratioP1;P1;durP2;ratioP2;P2;SDS_P1;SDS_P2;PMS_P1;PMS_P2;Temp;Humidity;BMP_temperature;BMP_pressure;BME280_temperature;BME280_humidity;BME280_pressure;Samples;Min_cycle;Max_cycle;Signal;HPM_P1;HPM_P2
2023/02/15 00:00:16;;;;;;;29.30;16.20;;;-0.80;99.90;;;;;;5039811;28;20198;-74
2023/02/15 00:02:41;;;;;;;35.43;18.17;;;-0.80;99.90;;;;;;5023482;28;20207;-74
2023/02/15 00:05:08;;;;;;;34.77;18.07;;;-0.90;99.90;;;;;;5013467;28;20435;-74
2023/02/15 00:07:33;;;;;;;36.23;17.87;;;-0.90;99.90;;;;;;5031730;28;20189;-74
2023/02/15 00:09:59;;;;;;;32.57;17.83;;;-0.90;99.90;;;;;;5031622;28;20423;-74
2023/02/15 00:12:24;;;;;;;31.13;16.77;;;-1.00;99.90;;;;;;5031196;28;20230;-74
2023/02/15 00:14:50;;;;;;;33.47;17.80;;;-1.00;99.90;;;;;;5031604;28;20559;-74
2023/02/15 00:17:15;;;;;;;29.13;16.60;;;-1.00;99.90;;;;;;5031302;28;20660;-74
2023/02/15 00:19:41;;;;;;;34.63;18.20;;;-1.00;99.90;;;;;;5031470;28;20191;-74
2023/02/15 00:22:07;;;;;;;38.90;18.67;;;-1.00;99.90;;;;;;5031157;28;20208;-73
2023/02/15 00:24:32;;;;;;;39.27;18.47;;;-1.00;99.90;;;;;;5031282;28;20238;-74
2023/02/15 00:26:58;;;;;;;34.47;17.63;;;-1.00;99.90;;;;;;5013454;28;20279;-74
2023/02/15 00:29:23;;;;;;;35.10;18.30;;;-1.00;99.90;;;;;;5036261;28;20237;-74
2023/02/15 00:31:49;;;;;;;32.10;19.23;;;-1.10;99.90;;;;;;5042625;28;20309;-73
2023/02/15 00:34:19;;;;;;;35.33;18.97;;;-1.10;99.90;;;;;;5034703;28;20193;-75
2023/02/15 00:36:45;;;;;;;35.50;18.63;;;-1.10;99.90;;;;;;5035274;28;20478;-75
2023/02/15 00:39:11;;;;;;;34.67;18.17;;;-1.10;99.90;;;;;;5028264;28;20571;-74
2023/02/15 00:41:37;;;;;;;34.57;19.33;;;-1.10;99.90;;;;;;5026409;28;20486;-74
2023/02/15 00:44:03;;;;;;;35.50;18.50;;;-1.20;99.90;;;;;;5039518;28;20505;-75
2023/02/15 00:46:29;;;;;;;41.80;19.67;;;-1.20;99.90;;;;;;5021459;28;20671;-75
2023/02/15 00:48:54;;;;;;;36.43;19.10;;;-1.10;99.90;;;;;;5031086;28;20272;-75
2023/02/15 00:51:20;;;;;;;32.30;18.43;;;-1.10;99.90;;;;;;5031167;28;20447;-75
2023/02/15 00:53:46;;;;;;;38.00;19.93;;;-1.10;99.90;;;;;;5031159;28;20188;-74
2023/02/15 00:56:12;;;;;;;40.27;19.60;;;-1.10;99.90;;;;;;5013174;28;20217;-75
2023/02/15 00:58:38;;;;;;;34.70;18.77;;;-1.20;99.90;;;;;;5031164;28;20389;-75
2023/02/15 01:01:10;;;;;;;35.33;21.23;;;-1.20;99.90;;;;;;5013237;28;20444;-75
2023/02/15 01:03:35;;;;;;;38.37;20.70;;;-1.20;99.90;;;;;;5031259;28;20425;-74
2023/02/15 01:06:01;;;;;;;35.87;18.00;;;-1.20;99.90;;;;;;5032253;28;20496;-74
2023/02/15 01:08:27;;;;;;;34.80;20.27;;;-1.20;99.90;;;;;;5037539;28;20674;-75
2023/02/15 01:10:53;;;;;;;36.37;20.07;;;-1.30;99.90;;;;;;5030979;28;20440;-74
2023/02/15 01:13:19;;;;;;;38.63;20.20;;;-1.30;99.90;;;;;;5030950;28;20273;-74
2023/02/15 01:15:44;;;;;;;37.17;19.23;;;-1.30;99.90;;;;;;5031062;28;20730;-74
2023/02/15 01:18:11;;;;;;;36.73;20.57;;;-1.30;99.90;;;;;;5030734;28;20821;-74
2023/02/15 01:20:38;;;;;;;32.20;18.40;;;-1.30;99.90;;;;;;5013392;28;20480;-74
2023/02/15 01:23:05;;;;;;;42.13;19.40;;;-1.30;99.90;;;;;;5022984;28;20764;-73
2023/02/15 01:25:34;;;;;;;37.30;19.70;;;-1.30;99.90;;;;;;5034384;28;20454;-74
2023/02/15 01:27:59;;;;;;;35.27;20.03;;;-1.30;99.90;;;;;;5034134;28;20416;-74
2023/02/15 01:30:25;;;;;;;39.10;20.50;;;-1.40;99.90;;;;;;5016758;28;20428;-74
2023/02/15 01:32:51;;;;;;;37.80;18.97;;;-1.40;99.90;;;;;;5034839;28;20289;-74
2023/02/15 01:35:16;;;;;;;39.03;19.43;;;-1.40;99.90;;;;;;5034672;28;20190;-74
2023/02/15 01:37:42;;;;;;;44.93;20.93;;;-1.40;99.90;;;;;;5035652;28;20181;-74
2023/02/15 01:40:12;;;;;;;33.57;19.00;;;-1.50;99.90;;;;;;5035260;28;20188;-74
2023/02/15 01:42:38;;;;;;;40.10;19.03;;;-1.50;99.90;;;;;;5034411;28;20208;-74
2023/02/15 01:45:17;;;;;;;36.07;21.23;;;-1.50;99.90;;;;;;5034046;28;20431;-74
2023/02/15 01:47:47;;;;;;;50.43;21.20;;;-1.50;99.90;;;;;;5034191;28;20649;-74
2023/02/15 01:50:22;;;;;;;34.20;18.03;;;-1.50;99.90;;;;;;5033945;28;20424;-74
2023/02/15 01:52:55;;;;;;;31.13;18.03;;;-1.50;99.90;;;;;;5034060;28;20511;-74
2023/02/15 01:55:23;;;;;;;37.20;20.97;;;-1.50;99.90;;;;;;5026175;28;20792;-73
2023/02/15 01:57:50;;;;;;;35.20;18.73;;;-1.50;99.90;;;;;;5034022;28;20793;-74
2023/02/15 03:30:57;;;;;;;49.07;22.77;;;-1.70;99.90;;;;;;5902839;22;20521;-73
2023/02/15 03:33:23;;;;;;;43.93;22.80;;;-1.70;99.90;;;;;;4942461;28;20415;-76
2023/02/15 03:36:01;;;;;;;58.63;23.70;;;-1.60;99.90;;;;;;4967227;28;20477;-76
2023/02/15 03:38:36;;;;;;;65.33;24.80;;;-1.60;99.90;;;;;;4965694;28;20420;-76
2023/02/15 03:41:09;;;;;;;61.53;26.83;;;-1.60;99.90;;;;;;4964786;28;20455;-77
2023/02/15 03:43:46;;;;;;;78.57;25.33;;;-1.60;99.90;;;;;;4954071;28;20431;-76
2023/02/15 03:46:29;;;;;;;52.63;22.70;;;-1.50;99.90;;;;;;4961183;28;20429;-76
2023/02/15 03:49:30;;;;;;;104.50;28.00;;;-1.50;99.90;;;;;;4953870;28;20423;-76
2023/02/15 03:51:58;;;;;;;77.07;27.47;;;-1.50;99.90;;;;;;4960784;28;20466;-76
2023/02/15 03:54:48;;;;;;;85.20;26.40;;;-1.50;99.90;;;;;;4972547;28;20417;-78
2023/02/15 04:03:20;;;;;;;69.47;26.83;;;-1.40;99.90;;;;;;4967738;28;21014;-76
2023/02/15 04:05:46;;;;;;;82.13;26.70;;;-1.40;99.90;;;;;;4959013;28;20936;-75
2023/02/15 04:08:12;;;;;;;80.17;28.10;;;-1.30;99.90;;;;;;4955185;28;20451;-76
2023/02/15 04:10:53;;;;;;;102.87;27.90;;;-1.30;99.90;;;;;;4971983;28;20212;-76
2023/02/15 04:13:32;;;;;;;94.93;29.10;;;-1.30;99.90;;;;;;4964996;28;20416;-74
2023/02/15 04:16:03;;;;;;;122.70;29.10;;;-1.20;99.90;;;;;;4964661;28;20466;-76
2023/02/15 04:26:52;;;;;;;218.00;28.93;;;-1.20;99.90;;;;;;4964842;28;20574;-76
2023/02/15 04:29:19;;;;;;;61.67;25.50;;;-1.20;99.90;;;;;;4962509;28;20459;-76
2023/02/15 04:31:45;;;;;;;111.37;25.27;;;-1.20;99.90;;;;;;4943785;28;20471;-76
2023/02/15 04:34:11;;;;;;;86.90;23.70;;;-1.20;99.90;;;;;;4969117;28;20485;-76
2023/02/15 04:36:37;;;;;;;134.87;28.00;;;-1.10;99.90;;;;;;4953224;28;20352;-75
2023/02/15 04:39:03;;;;;;;158.50;29.00;;;-1.10;99.90;;;;;;4969053;28;20612;-77
2023/02/15 04:41:29;;;;;;;162.97;27.77;;;-1.20;99.90;;;;;;4964748;28;20510;-76
2023/02/15 04:43:54;;;;;;;84.33;25.57;;;-1.20;99.90;;;;;;4957507;28;20265;-76
2023/02/15 04:46:20;;;;;;;80.27;26.80;;;-1.20;99.90;;;;;;4954649;28;20567;-76
2023/02/15 04:48:45;;;;;;;80.10;25.93;;;-1.20;99.90;;;;;;4958680;28;20611;-76
2023/02/15 04:51:11;;;;;;;92.40;26.73;;;-1.20;99.90;;;;;;4954126;28;20626;-76
2023/02/15 04:53:36;;;;;;;97.10;27.13;;;-1.20;99.90;;;;;;4964331;28;20190;-76
2023/02/15 04:56:02;;;;;;;137.43;26.00;;;-1.20;99.90;;;;;;4956453;28;20250;-76
2023/02/15 04:58:28;;;;;;;77.50;25.70;;;-1.20;99.90;;;;;;4955407;28;20622;-77
2023/02/15 05:00:57;;;;;;;140.73;29.20;;;-1.20;99.90;;;;;;4957080;28;20447;-76
2023/02/15 05:03:23;;;;;;;61.33;24.60;;;-1.30;99.90;;;;;;4972138;28;20198;-76
2023/02/15 05:05:49;;;;;;;118.93;27.80;;;-1.30;99.90;;;;;;4957294;28;20834;-76
2023/02/15 05:08:15;;;;;;;107.03;26.30;;;-1.30;99.90;;;;;;4956002;28;20445;-77
2023/02/15 05:10:40;;;;;;;119.53;26.43;;;-1.20;99.90;;;;;;4962825;28;20201;-77
2023/02/15 05:13:06;;;;;;;101.63;26.90;;;-1.30;99.90;;;;;;4947068;28;20173;-77
2023/02/15 05:15:31;;;;;;;104.73;26.67;;;-1.30;99.90;;;;;;4963854;28;20181;-76
2023/02/15 05:17:57;;;;;;;90.90;31.70;;;-1.40;99.90;;;;;;4956630;28;20193;-76
2023/02/15 05:20:22;;;;;;;81.53;26.47;;;-1.40;99.90;;;;;;4966034;28;20200;-75
2023/02/15 05:22:48;;;;;;;57.27;25.07;;;-1.30;99.90;;;;;;4961938;28;20264;-75
2023/02/15 05:30:44;;;;;;;80.97;24.80;;;-1.40;99.90;;;;;;4964192;28;20460;-76
2023/02/15 05:33:09;;;;;;;61.20;23.30;;;-1.50;99.90;;;;;;4964373;28;20773;-78
2023/02/15 05:35:35;;;;;;;50.53;22.50;;;-1.50;99.90;;;;;;4956253;28;20181;-76
2023/02/15 05:38:00;;;;;;;48.80;23.27;;;-1.50;99.90;;;;;;4939002;28;20181;-76
2023/02/15 05:40:26;;;;;;;56.87;24.73;;;-1.50;99.90;;;;;;4972014;28;20188;-78
2023/02/15 05:42:51;;;;;;;96.93;26.20;;;-1.60;99.90;;;;;;4956229;28;20193;-74
2023/02/15 05:45:17;;;;;;;65.70;24.80;;;-1.60;99.90;;;;;;4964057;28;20698;-76
2023/02/15 05:47:43;;;;;;;64.60;24.57;;;-1.60;99.90;;;;;;4955989;28;20178;-76
2023/02/15 05:50:09;;;;;;;46.50;22.40;;;-1.60;99.90;;;;;;4963922;28;20184;-76
2023/02/15 05:52:35;;;;;;;88.07;24.10;;;-1.60;99.90;;;;;;4956063;28;20283;-76
2023/02/15 05:55:02;;;;;;;60.60;24.17;;;-1.50;99.90;;;;;;4956076;28;20420;-76
2023/02/15 05:57:28;;;;;;;241.67;31.03;;;-1.50;99.90;;;;;;4956416;28;20664;-76
2023/02/15 05:59:53;;;;;;;105.50;24.30;;;-1.50;99.90;;;;;;4964544;28;20424;-76
2023/02/15 06:02:19;;;;;;;165.20;28.90;;;-1.50;99.90;;;;;;4972309;28;20290;-75
2023/02/15 06:04:44;;;;;;;129.50;26.50;;;-1.50;99.90;;;;;;4961391;28;20184;-76
2023/02/15 06:07:10;;;;;;;61.63;24.40;;;-1.50;99.90;;;;;;4959492;28;20196;-76
2023/02/15 06:09:35;;;;;;;87.27;26.80;;;-1.50;99.90;;;;;;4959623;28;20208;-76
2023/02/15 06:12:01;;;;;;;57.67;23.23;;;-1.40;99.90;;;;;;4960502;28;20215;-76
2023/02/15 06:14:26;;;;;;;99.03;26.73;;;-1.40;99.90;;;;;;4956249;28;20280;-76
2023/02/15 06:16:52;;;;;;;134.07;26.30;;;-1.50;99.90;;;;;;4956060;28;20228;-75
2023/02/15 06:19:17;;;;;;;89.70;25.20;;;-1.50;99.90;;;;;;4963485;28;20200;-72
2023/02/15 06:21:43;;;;;;;91.13;24.57;;;-1.50;99.90;;;;;;4937924;29;20607;-71
2023/02/15 06:24:09;;;;;;;93.80;24.50;;;-1.50;99.90;;;;;;4955494;28;20259;-72
2023/02/15 06:26:35;;;;;;;177.40;27.83;;;-1.40;99.90;;;;;;4958718;28;20506;-74
2023/02/15 06:29:00;;;;;;;211.87;29.17;;;-1.40;99.90;;;;;;4967329;28;20846;-75
2023/02/15 06:31:26;;;;;;;210.33;29.97;;;-1.50;99.90;;;;;;4957128;28;20227;-73
2023/02/15 06:33:51;;;;;;;144.60;27.97;;;-1.60;99.90;;;;;;4960510;28;20725;-74
2023/02/15 06:36:17;;;;;;;128.37;27.23;;;-1.60;99.90;;;;;;4954928;28;20209;-73
2023/02/15 06:38:42;;;;;;;176.60;27.20;;;-1.60;99.90;;;;;;4955241;28;20635;-74
2023/02/15 06:41:08;;;;;;;168.40;27.47;;;-1.50;99.90;;;;;;4963055;28;20197;-74
2023/02/15 06:43:34;;;;;;;94.67;25.07;;;-1.50;99.90;;;;;;4955042;28;20261;-74
2023/02/15 06:46:00;;;;;;;74.50;23.30;;;-1.50;99.90;;;;;;4954831;28;20540;-75
2023/02/15 06:48:25;;;;;;;125.27;25.30;;;-1.60;99.90;;;;;;4954744;28;20214;-74
2023/02/15 06:50:51;;;;;;;72.67;23.10;;;-1.60;99.90;;;;;;4954649;28;21261;-74
2023/02/15 06:53:17;;;;;;;69.80;24.40;;;-1.60;99.90;;;;;;4954856;28;20605;-74
2023/02/15 06:55:42;;;;;;;128.10;25.90;;;-1.60;99.90;;;;;;4954346;28;20213;-74
2023/02/15 06:58:08;;;;;;;61.87;23.37;;;-1.60;99.90;;;;;;4955255;28;20207;-74
2023/02/15 07:00:33;;;;;;;58.30;22.50;;;-1.60;99.90;;;;;;4954633;28;20608;-74
2023/02/15 07:02:59;;;;;;;50.80;23.03;;;-1.60;99.90;;;;;;4954593;28;20187;-74
2023/02/15 07:05:30;;;;;;;56.60;24.43;;;-1.60;99.90;;;;;;4962395;28;20263;-74
2023/02/15 07:07:56;;;;;;;43.80;21.20;;;-1.50;99.90;;;;;;4954434;28;20932;-74
2023/02/15 07:10:22;;;;;;;50.30;21.40;;;-1.50;99.90;;;;;;4954543;28;20399;-74
2023/02/15 07:12:47;;;;;;;49.97;21.10;;;-1.50;99.90;;;;;;4959454;28;20518;-74
2023/02/15 07:15:15;;;;;;;56.93;22.87;;;-1.40;99.90;;;;;;4957462;28;20280;-72
2023/02/15 07:17:41;;;;;;;42.80;21.97;;;-1.40;99.90;;;;;;4954262;28;20562;-72
2023/02/15 07:20:10;;;;;;;43.80;21.37;;;-1.50;99.90;;;;;;4962582;28;20415;-73
2023/02/15 07:22:36;;;;;;;56.10;23.60;;;-1.40;99.90;;;;;;4956722;28;20445;-73
2023/02/15 07:25:03;;;;;;;39.63;20.70;;;-1.30;99.90;;;;;;4958920;28;20418;-73
2023/02/15 07:27:30;;;;;;;41.93;21.40;;;-1.20;99.90;;;;;;4964401;28;20935;-73
2023/02/15 07:29:55;;;;;;;42.93;20.50;;;-1.20;99.90;;;;;;4959632;28;20454;-73
2023/02/15 07:32:21;;;;;;;42.63;21.27;;;-1.10;99.90;;;;;;4937200;28;20951;-74
2023/02/15 07:34:46;;;;;;;43.23;21.63;;;-1.20;99.90;;;;;;4954124;28;20185;-74
2023/02/15 07:37:12;;;;;;;40.50;20.00;;;-1.20;99.90;;;;;;4954016;28;20741;-73
2023/02/15 07:39:37;;;;;;;38.80;23.03;;;-1.10;99.90;;;;;;4969874;28;20255;-73
2023/02/15 07:42:03;;;;;;;38.27;21.07;;;-1.10;99.90;;;;;;4960365;28;20204;-74
2023/02/15 07:44:29;;;;;;;38.87;22.40;;;-0.90;99.90;;;;;;4963257;28;20188;-73
2023/02/15 07:46:54;;;;;;;49.70;22.30;;;-0.90;99.90;;;;;;4962593;28;20618;-73
2023/02/15 07:49:20;;;;;;;39.87;20.90;;;-0.80;99.90;;;;;;4963662;28;20665;-73
2023/02/15 07:51:45;;;;;;;47.80;22.63;;;-0.70;99.90;;;;;;4954188;28;20632;-73
2023/02/15 07:54:11;;;;;;;37.10;19.97;;;-0.70;99.90;;;;;;4953890;28;20307;-73
2023/02/15 07:56:37;;;;;;;64.03;21.40;;;-0.70;99.90;;;;;;4953716;28;20465;-73
2023/02/15 07:59:04;;;;;;;43.70;21.37;;;-0.70;99.90;;;;;;4953560;28;20258;-73
2023/02/15 08:01:33;;;;;;;46.00;21.50;;;-0.60;99.90;;;;;;4953671;28;20223;-74
2023/02/15 08:03:59;;;;;;;64.17;22.20;;;-0.50;99.90;;;;;;4953461;28;20934;-73
2023/02/15 08:06:27;;;;;;;81.57;24.90;;;-0.50;99.90;;;;;;4953498;28;20434;-74
2023/02/15 08:08:53;;;;;;;58.60;20.93;;;-0.70;99.90;;;;;;4953321;28;20178;-73
2023/02/15 08:11:28;;;;;;;44.57;21.20;;;-0.60;99.90;;;;;;4953427;28;20943;-73
2023/02/15 08:14:12;;;;;;;41.07;21.63;;;-0.50;99.90;;;;;;4953533;28;20714;-70
2023/02/15 08:16:39;;;;;;;41.00;20.83;;;-0.40;99.90;;;;;;4953160;28;20563;-73
2023/02/15 08:19:08;;;;;;;36.93;20.83;;;-0.30;99.90;;;;;;4953439;28;20539;-73
2023/02/15 08:21:35;;;;;;;40.90;22.27;;;-0.10;99.90;;;;;;4936102;28;20454;-73
2023/02/15 08:24:02;;;;;;;42.90;21.50;;;-0.10;99.90;;;;;;4953099;28;20510;-73
2023/02/15 08:26:29;;;;;;;55.87;21.67;;;0.00;99.90;;;;;;4953180;28;20513;-73
2023/02/15 08:28:54;;;;;;;44.67;20.30;;;0.20;99.90;;;;;;4953215;28;20443;-72
2023/02/15 08:31:20;;;;;;;34.80;18.30;;;0.20;99.90;;;;;;4953288;28;20554;-75
2023/02/15 08:33:47;;;;;;;39.57;22.63;;;0.30;99.90;;;;;;4956633;28;20191;-73
2023/02/15 08:36:18;;;;;;;39.73;22.00;;;0.40;99.90;;;;;;4957152;28;20466;-72
2023/02/15 08:38:44;;;;;;;41.40;20.87;;;0.50;99.90;;;;;;4965389;28;20836;-73
2023/02/15 08:41:21;;;;;;;44.93;22.53;;;0.50;99.90;;;;;;4964296;28;20414;-73
2023/02/15 08:43:53;;;;;;;41.60;22.40;;;0.50;99.90;;;;;;4965197;28;20420;-73
2023/02/15 08:46:19;;;;;;;41.23;23.97;;;0.50;99.90;;;;;;4957242;28;20804;-75
2023/02/15 08:48:45;;;;;;;54.80;22.40;;;0.60;99.90;;;;;;4957272;28;20431;-75
2023/02/15 08:51:18;;;;;;;38.07;21.10;;;0.60;99.90;;;;;;4957207;28;20669;-74
2023/02/15 08:53:48;;;;;;;46.40;21.40;;;0.80;99.90;;;;;;4957027;28;20192;-74
2023/02/15 08:56:14;;;;;;;41.20;19.53;;;0.80;99.90;;;;;;4964549;28;20473;-74
2023/02/15 08:58:40;;;;;;;43.47;20.20;;;0.80;99.90;;;;;;4963334;28;20425;-73
2023/02/15 09:01:14;;;;;;;47.23;21.00;;;0.60;99.90;;;;;;4956849;28;20220;-73
2023/02/15 09:03:39;;;;;;;35.43;21.60;;;0.60;99.90;;;;;;4964858;28;20550;-75
2023/02/15 09:06:05;;;;;;;48.37;20.70;;;0.60;99.90;;;;;;4956694;28;20420;-73
2023/02/15 09:08:31;;;;;;;41.60;21.60;;;0.80;99.90;;;;;;4956830;28;20191;-73
2023/02/15 09:11:22;;;;;;;45.60;22.67;;;0.80;99.90;;;;;;4964345;28;20551;-73
2023/02/15 09:13:55;;;;;;;56.27;20.30;;;0.80;99.90;;;;;;4960552;28;20776;-73
2023/02/15 09:16:22;;;;;;;44.97;21.37;;;0.90;99.90;;;;;;4967784;28;20498;-73
2023/02/15 09:18:48;;;;;;;44.50;22.27;;;0.90;99.90;;;;;;4957630;28;20424;-74
2023/02/15 09:21:16;;;;;;;51.30;21.10;;;1.10;99.90;;;;;;4956995;28;20439;-73
2023/02/15 09:23:43;;;;;;;42.30;21.80;;;1.20;99.90;;;;;;4955897;28;20503;-72
2023/02/15 09:26:15;;;;;;;39.77;22.07;;;1.30;99.90;;;;;;4956157;28;20482;-74
2023/02/15 09:28:41;;;;;;;37.83;21.87;;;1.50;99.90;;;;;;4956326;28;20428;-74
2023/02/15 09:31:21;;;;;;;43.63;23.07;;;1.80;99.90;;;;;;4962239;28;20463;-74
2023/02/15 09:33:47;;;;;;;41.50;22.00;;;2.00;99.90;;;;;;4964003;28;20468;-72
2023/02/15 09:36:19;;;;;;;39.77;22.30;;;2.30;99.90;;;;;;4955521;28;20484;-72
2023/02/15 09:38:46;;;;;;;40.40;22.97;;;2.40;99.90;;;;;;4963961;28;20427;-73
2023/02/15 09:41:23;;;;;;;46.63;22.67;;;2.60;99.90;;;;;;4970919;28;20465;-73
2023/02/15 09:43:58;;;;;;;41.80;22.97;;;3.00;99.90;;;;;;4954985;28;20539;-73
2023/02/15 09:46:30;;;;;;;38.47;22.33;;;3.20;99.90;;;;;;4955637;28;20434;-73
2023/02/15 09:49:10;;;;;;;43.17;20.50;;;3.80;99.90;;;;;;4955739;28;20437;-73
2023/02/15 09:51:43;;;;;;;35.80;22.33;;;4.30;99.90;;;;;;4963741;28;20478;-72
2023/02/15 09:54:31;;;;;;;33.53;21.40;;;5.00;99.90;;;;;;4962415;28;20419;-71
2023/02/15 09:57:15;;;;;;;35.20;21.33;;;5.60;99.90;;;;;;4960449;28;20467;-73
2023/02/15 09:59:49;;;;;;;30.63;20.03;;;5.90;99.90;;;;;;4956461;28;20888;-74
2023/02/15 10:02:47;;;;;;;29.93;20.13;;;6.30;99.90;;;;;;4955988;28;20448;-73
2023/02/15 10:05:32;;;;;;;37.40;21.80;;;6.50;99.90;;;;;;4947707;28;20441;-73
2023/02/15 10:08:20;;;;;;;40.10;22.47;;;6.80;99.90;;;;;;4964095;28;20415;-73
2023/02/15 10:11:38;;;;;;;39.07;24.50;;;7.50;99.90;;;;;;4967247;28;20445;-73
2023/02/15 10:14:14;;;;;;;40.17;23.23;;;7.60;99.90;;;;;;4959108;28;20418;-73
2023/02/15 10:17:07;;;;;;;40.00;24.00;;;7.00;99.90;;;;;;4950271;28;20529;-73
2023/02/15 10:20:11;;;;;;;43.10;27.80;;;7.40;99.90;;;;;;4956999;28;20439;-72
2023/02/15 10:23:08;;;;;;;35.77;21.50;;;7.90;99.90;;;;;;4956919;28;20456;-73
2023/02/15 10:25:55;;;;;;;38.63;21.70;;;8.30;99.90;;;;;;4963212;28;20421;-74
2023/02/15 10:28:28;;;;;;;35.57;22.80;;;8.80;99.90;;;;;;4962856;28;20461;-75
2023/02/15 10:31:03;;;;;;;49.43;25.00;;;8.90;99.90;;;;;;4954637;28;20466;-72
2023/02/15 10:33:41;;;;;;;36.23;21.10;;;9.20;99.90;;;;;;4963283;28;21000;-73
2023/02/15 10:36:37;;;;;;;36.30;20.57;;;9.30;99.90;;;;;;4960727;28;20482;-73
2023/02/15 10:39:20;;;;;;;31.77;20.60;;;9.00;99.90;;;;;;4962772;28;20414;-72
2023/02/15 10:42:12;;;;;;;38.37;22.63;;;9.10;99.90;;;;;;4955305;28;20462;-73
2023/02/15 10:44:58;;;;;;;39.33;20.37;;;9.10;99.90;;;;;;4925340;28;20533;-73
2023/02/15 10:47:36;;;;;;;35.13;20.87;;;9.30;99.90;;;;;;4947369;28;20472;-71
2023/02/15 10:50:26;;;;;;;42.73;25.60;;;9.40;99.90;;;;;;4959896;28;20442;-73
2023/02/15 10:53:01;;;;;;;34.23;22.07;;;9.70;99.90;;;;;;4962431;28;20420;-71
2023/02/15 10:55:36;;;;;;;171.87;146.97;;;10.10;99.90;;;;;;4962406;28;20426;-72
2023/02/15 10:58:01;;;;;;;338.60;306.13;;;10.30;99.90;;;;;;4954797;28;20945;-73
2023/02/15 11:00:38;;;;;;;276.83;73.17;;;10.40;99.90;;;;;;4955371;28;20456;-74
2023/02/15 11:03:22;;;;;;;39.10;23.47;;;10.40;99.90;;;;;;4959850;28;20184;-73
2023/02/15 11:06:10;;;;;;;35.37;21.30;;;10.40;99.90;;;;;;4954759;28;20448;-73
2023/02/15 11:08:41;;;;;;;35.87;23.20;;;10.50;99.90;;;;;;4954782;28;20452;-74
2023/02/15 11:11:10;;;;;;;106.70;45.03;;;10.90;99.90;;;;;;4962451;28;20932;-74
2023/02/15 11:13:46;;;;;;;469.47;109.53;;;11.30;99.90;;;;;;4954745;28;20417;-73
2023/02/15 11:16:24;;;;;;;300.10;270.70;;;11.50;99.90;;;;;;4968534;28;20466;-72
2023/02/15 11:18:55;;;;;;;1999.90;999.90;;;11.40;99.90;;;;;;4954754;28;20420;-74
2023/02/15 11:21:28;;;;;;;347.77;317.57;;;11.50;99.90;;;;;;4962281;28;20444;-73
2023/02/15 11:23:54;;;;;;;493.10;453.27;;;11.50;99.90;;;;;;4954370;28;20495;-73
2023/02/15 11:26:27;;;;;;;921.30;562.70;;;11.50;99.90;;;;;;4954192;28;20431;-73
2023/02/15 11:28:58;;;;;;;810.57;409.63;;;11.60;99.90;;;;;;4962056;28;20462;-74
2023/02/15 11:31:29;;;;;;;826.90;465.00;;;11.40;99.90;;;;;;4954197;28;20464;-73
2023/02/15 11:34:01;;;;;;;1999.90;999.90;;;11.30;99.90;;;;;;4957958;28;20919;-73
2023/02/15 11:36:38;;;;;;;499.83;258.37;;;11.30;99.90;;;;;;4957310;28;20805;-73
2023/02/15 11:39:14;;;;;;;1447.53;768.90;;;11.30;99.90;;;;;;4967182;28;20776;-73
2023/02/15 11:41:44;;;;;;;1999.90;999.90;;;11.20;99.90;;;;;;4957405;28;20431;-73
2023/02/15 11:44:16;;;;;;;144.90;113.03;;;11.20;99.90;;;;;;4959475;28;20411;-70
2023/02/15 11:46:42;;;;;;;1999.90;999.90;;;11.00;99.90;;;;;;4961780;28;20415;-73
2023/02/15 11:49:32;;;;;;;36.13;24.70;;;10.90;99.90;;;;;;4959277;28;20644;-74
2023/02/15 11:52:00;;;;;;;36.93;24.23;;;10.70;99.90;;;;;;4955729;28;20588;-75
2023/02/15 11:54:29;;;;;;;37.80;24.87;;;10.70;99.90;;;;;;4965422;28;20466;-79
2023/02/15 11:57:15;;;;;;;37.17;23.67;;;10.80;99.90;;;;;;4964771;28;20856;-74
2023/02/15 11:59:46;;;;;;;43.37;24.87;;;11.00;99.90;;;;;;4955306;28;20451;-74
2023/02/15 12:02:20;;;;;;;35.47;23.80;;;11.00;99.90;;;;;;4959455;28;20810;-74
2023/02/15 12:04:52;;;;;;;35.50;23.87;;;11.10;99.90;;;;;;4964520;28;20426;-73
2023/02/15 12:07:26;;;;;;;41.80;24.40;;;11.20;99.90;;;;;;4957992;28;20481;-74
2023/02/15 12:10:13;;;;;;;32.73;24.10;;;11.20;99.90;;;;;;4961392;28;20427;-73
2023/02/15 12:12:39;;;;;;;33.57;22.57;;;11.30;99.90;;;;;;4955122;28;20458;-74
2023/02/15 12:15:07;;;;;;;32.93;23.73;;;11.40;99.90;;;;;;4969177;28;20530;-79
2023/02/15 12:17:39;;;;;;;39.27;23.63;;;11.40;99.90;;;;;;4986349;28;20213;-81
2023/02/15 12:20:30;;;;;;;38.73;24.63;;;11.40;99.90;;;;;;4995483;28;20417;-80
2023/02/15 12:23:12;;;;;;;39.00;23.70;;;11.20;99.90;;;;;;4975584;28;20471;-80
2023/02/15 12:25:53;;;;;;;34.40;23.13;;;11.20;99.90;;;;;;4977077;28;20909;-79
2023/02/15 12:28:31;;;;;;;35.33;23.63;;;11.10;99.90;;;;;;4977126;28;20429;-79
2023/02/15 12:30:58;;;;;;;50.40;23.60;;;11.00;99.90;;;;;;4957707;28;20562;-79
2023/02/15 12:33:35;;;;;;;35.87;23.60;;;11.10;99.90;;;;;;4975510;28;20490;-78
2023/02/15 12:36:11;;;;;;;35.27;24.40;;;11.10;99.90;;;;;;4973649;28;20506;-79
2023/02/15 12:38:37;;;;;;;31.13;23.70;;;11.20;99.90;;;;;;4974534;28;20439;-80
2023/02/15 12:41:05;;;;;;;35.57;24.60;;;11.00;99.90;;;;;;4974965;28;20442;-77
2023/02/15 12:43:38;;;;;;;33.13;25.40;;;11.00;99.90;;;;;;4980080;28;20439;-78
2023/02/15 12:46:19;;;;;;;31.00;22.33;;;10.90;99.90;;;;;;4982571;28;20466;-78
2023/02/15 12:48:45;;;;;;;29.47;23.43;;;11.00;99.90;;;;;;4958026;28;20456;-76
2023/02/15 12:51:15;;;;;;;34.00;23.97;;;10.90;99.90;;;;;;4954222;28;20924;-71
2023/02/15 12:53:40;;;;;;;35.07;23.10;;;10.80;99.90;;;;;;4954380;28;20207;-76
2023/02/15 12:56:08;;;;;;;41.10;24.77;;;10.70;99.90;;;;;;4964612;28;20541;-78
2023/02/15 12:58:41;;;;;;;47.10;25.03;;;10.80;99.90;;;;;;4974568;28;20177;-78
2023/02/15 13:01:15;;;;;;;38.90;25.00;;;10.80;99.90;;;;;;4975193;28;20439;-79
2023/02/15 13:04:02;;;;;;;41.93;27.00;;;10.80;99.90;;;;;;4976342;28;20411;-80
2023/02/15 13:06:32;;;;;;;36.83;24.03;;;10.80;99.90;;;;;;4983329;28;20427;-79
2023/02/15 13:09:05;;;;;;;38.27;26.00;;;10.80;99.90;;;;;;4981888;28;20916;-79
2023/02/15 13:11:34;;;;;;;41.37;27.97;;;10.70;99.90;;;;;;4999865;28;20519;-79
2023/02/15 13:14:03;;;;;;;35.80;25.10;;;10.70;99.90;;;;;;4993278;28;20943;-75
2023/02/15 13:16:38;;;;;;;55.17;30.40;;;10.80;99.90;;;;;;4991809;28;20454;-79
2023/02/15 13:19:12;;;;;;;36.70;25.90;;;10.80;99.90;;;;;;4996482;28;20410;-78
2023/02/15 13:21:41;;;;;;;39.67;24.80;;;10.60;99.90;;;;;;4995785;28;20931;-78
2023/02/15 13:24:23;;;;;;;48.07;27.50;;;10.60;99.90;;;;;;4978963;28;21001;-78
2023/02/15 13:26:50;;;;;;;38.33;24.83;;;10.50;99.90;;;;;;4994868;28;20422;-77
2023/02/15 13:29:22;;;;;;;39.90;27.00;;;10.30;99.90;;;;;;4995636;28;20418;-76
2023/02/15 13:31:49;;;;;;;38.73;24.27;;;10.10;99.90;;;;;;4995525;28;20508;-76
2023/02/15 13:34:22;;;;;;;35.03;25.63;;;10.10;99.90;;;;;;4995753;28;20441;-76
2023/02/15 13:37:12;;;;;;;37.10;25.07;;;10.20;99.90;;;;;;4997866;28;20593;-78
2023/02/15 13:39:46;;;;;;;34.43;24.87;;;10.20;99.90;;;;;;4980539;28;20760;-77
2023/02/15 13:42:20;;;;;;;39.30;23.50;;;10.30;99.90;;;;;;4997991;28;20833;-81
2023/02/15 13:44:57;;;;;;;40.27;25.77;;;10.20;99.90;;;;;;5001916;28;20405;-81
2023/02/15 13:47:25;;;;;;;35.67;25.03;;;10.20;99.90;;;;;;4998861;28;20442;-81
2023/02/15 13:50:19;;;;;;;39.10;26.17;;;10.20;99.90;;;;;;4996365;28;20831;-78
2023/02/15 13:53:08;;;;;;;37.10;26.20;;;10.20;99.90;;;;;;4995060;28;20434;-76
2023/02/15 13:55:51;;;;;;;36.17;23.80;;;10.10;99.90;;;;;;4981488;28;20414;-81
2023/02/15 13:58:24;;;;;;;45.80;25.10;;;10.00;99.90;;;;;;4995784;28;20418;-75
2023/02/15 14:00:53;;;;;;;33.20;23.10;;;10.10;99.90;;;;;;4993509;28;20469;-75
2023/02/15 14:03:27;;;;;;;40.97;25.37;;;10.00;99.90;;;;;;4992043;28;20498;-74
2023/02/15 14:05:57;;;;;;;40.27;26.40;;;10.00;99.90;;;;;;4973507;28;20415;-76
2023/02/15 14:08:57;;;;;;;36.73;23.97;;;10.00;99.90;;;;;;4974402;28;20919;-76
2023/02/15 14:11:57;;;;;;;43.53;24.80;;;10.00;99.90;;;;;;4974842;28;20448;-75
2023/02/15 14:14:40;;;;;;;37.13;23.70;;;10.00;99.90;;;;;;4974746;28;20410;-74
2023/02/15 14:17:23;;;;;;;38.17;25.53;;;9.80;99.90;;;;;;4974559;28;20465;-74
2023/02/15 14:19:54;;;;;;;34.97;23.80;;;9.80;99.90;;;;;;4974751;28;20439;-75
2023/02/15 14:22:42;;;;;;;51.87;34.67;;;9.80;99.90;;;;;;4974946;28;20435;-75
2023/02/15 14:25:17;;;;;;;35.00;22.43;;;9.90;99.90;;;;;;4974629;28;20443;-74
2023/02/15 14:28:00;;;;;;;28.73;18.50;;;10.00;99.90;;;;;;4974554;28;20984;-75
2023/02/15 14:30:38;;;;;;;34.20;21.07;;;10.00;99.90;;;;;;4973930;28;20403;-73
2023/02/15 14:33:30;;;;;;;39.10;22.03;;;10.10;99.90;;;;;;4974590;28;20415;-73
2023/02/15 14:35:57;;;;;;;31.73;21.17;;;10.00;99.90;;;;;;4974054;28;20497;-72